avr
21

MX FIM – GP DE BULGARIE : LES QUALIFICATIONS

MX1 – Pre-Qualifying Practice – Classification
Pos Nr Rider Nat. Fed. Bike Bestlaptime in lap Diff. First Diff. Prev. Tot. Laps Speed

1 25 Desalle, Clement BEL FMB Suzuki 1:44.858 8 0:00.000 0:00.000 9 57.678
2 183 Frossard, Steven FRA FFM Yamaha 1:44.954 6 0:00.096 0:00.096 11 57.625
3 377 Pourcel, Christophe FRA FFM Kawasaki 1:44.998 9 0:00.140 0:00.044 10 57.601
4 21 Paulin, Gautier FRA FFM Kawasaki 1:45.313 5 0:00.455 0:00.315 7 57.429
5 222 Cairoli, Antonio ITA FMI KTM 1:46.156 11 0:01.298 0:00.843 12 56.973
6 999 Goncalves, Rui POR FMP Honda 1:46.158 9 0:01.300 0:00.002 11 56.972
7 30 Aranda, Gregory FRA FFM Yamaha 1:46.253 7 0:01.395 0:00.095 10 56.921
8 9 de Dycker, Ken BEL FMB KTM 1:46.382 10 0:01.524 0:00.129 11 56.852
9 121 Boog, Xavier FRA FFM Kawasaki 1:46.442 11 0:01.584 0:00.060 12 56.82
10 4 Leok, Tanel EST EMF Suzuki 1:46.740 6 0:01.882 0:00.298 12 56.661
11 120 Soubeyras, Cedric FRA FFM Honda 1:46.882 9 0:02.024 0:00.142 11 56.586
12 39 Guarneri, Davide ITA FMI KTM 1:46.889 11 0:02.031 0:00.007 11 56.582
13 777 Bobryshev, Evgeny RUS MFR Honda 1:47.080 6 0:02.222 0:00.191 9 56.481
14 19 Philippaerts, David ITA FMI Yamaha 1:47.165 10 0:02.307 0:00.085 12 56.436
15 11 Pourcel, Sebastien FRA FFM Kawasaki 1:47.208 7 0:02.350 0:00.043 12 56.414
16 22 Strijbos, Kevin BEL FMB KTM 1:47.613 6 0:02.755 0:00.405 12 56.201
17 24 Simpson, Shaun GBR ACU Yamaha 1:47.799 7 0:02.941 0:00.186 11 56.104
18 7 Barragan, Jonathan ESP RFME Honda 1:47.890 9 0:03.032 0:00.091 13 56.057
19 91 Karro, Matiss LAT LAMSF KTM 1:48.441 10 0:03.583 0:00.551 12 55.772
20 10 Boissiere, Anthony FRA FFM TM 1:49.050 9 0:04.192 0:00.609 12 55.461
21 111 Ferris, Dean AUS MA Kawasaki 1:49.408 8 0:04.550 0:00.358 9 55.279
22 32 Potisek, Milko FRA FFM Honda 1:49.876 8 0:05.018 0:00.468 12 55.044
23 36 Bonini, Matteo ITA FMI KTM 1:50.509 7 0:05.651 0:00.633 9 54.729
24 61 Brakke, Herjan NED KNMV Yamaha 1:51.800 9 0:06.942 0:01.291 9 54.097
25 42 Parker, Nathan GBR ACU KTM 1:52.150 2 0:07.292 0:00.350 11 53.928
26 99 Teko, Kristers LAT LAMSF Honda 1:52.652 4 0:07.794 0:00.502 6 53.687
27 41 Smith, Alfie GBR ACU Yamaha 1:52.717 4 0:07.859 0:00.065 10 53.657
28 74 Steinbergs, Ivo LAT LAMSF Kawasaki 1:52.990 8 0:08.132 0:00.273 8 53.527
29 95 Justs, Augusts LAT LAMSF Honda 1:53.478 7 0:08.620 0:00.488 9 53.297
30 116 Pashchynskyi, Mykola UKR FMU KTM 1:54.397 9 0:09.539 0:00.919 13 52.869
31 67 Tiainen, Santtu FIN SML Kawasaki 1:54.502 4 0:09.644 0:00.105 12 52.82
32 611 Cociu, Mihail MOL FMI KTM 1:54.803 10 0:09.945 0:00.301 11 52.682

MX1 – Qualifying Race – Classification
Pos Nr Rider Nat. Fed. Bike Time laps Diff. First Diff. Prev. Bestlaptime in lap Speed

1 222 Cairoli, Antonio ITA FMI KTM 23:55.990 12 0:00.000 0:00.000 1:50.048 3 54.958
2 21 Paulin, Gautier FRA FFM Kawasaki 23:58.674 12 0:02.684 0:02.684 1:50.223 6 54.871
3 377 Pourcel, Christophe FRA FFM Kawasaki 24:00.210 12 0:04.220 0:01.536 1:49.546 3 55.21
4 25 Desalle, Clement BEL FMB Suzuki 24:16.483 12 0:20.493 0:16.273 1:50.551 3 54.708
5 9 de Dycker, Ken BEL FMB KTM 24:23.460 12 0:27.470 0:06.977 1:51.322 6 54.329
6 121 Boog, Xavier FRA FFM Kawasaki 24:26.880 12 0:30.890 0:03.420 1:51.934 4 54.032
7 19 Philippaerts, David ITA FMI Yamaha 24:29.545 12 0:33.555 0:02.665 1:51.376 4 54.303
8 777 Bobryshev, Evgeny RUS MFR Honda 24:32.442 12 0:36.452 0:02.897 1:51.857 3 54.069
9 30 Aranda, Gregory FRA FFM Yamaha 24:34.035 12 0:38.045 0:01.593 1:52.289 1 53.861
10 24 Simpson, Shaun GBR ACU Yamaha 24:36.538 12 0:40.548 0:02.503 1:52.410 7 53.803
11 999 Goncalves, Rui POR FMP Honda 24:37.827 12 0:41.837 0:01.289 1:52.180 4 53.913
12 4 Leok, Tanel EST EMF Suzuki 24:38.552 12 0:42.562 0:00.725 1:52.353 4 53.83
13 11 Pourcel, Sebastien FRA FFM Kawasaki 24:39.165 12 0:43.175 0:00.613 1:52.490 9 53.765
14 10 Boissiere, Anthony FRA FFM TM 24:40.822 12 0:44.832 0:01.657 1:52.823 10 53.606
15 120 Soubeyras, Cedric FRA FFM Honda 24:47.904 12 0:51.914 0:07.082 1:53.098 5 53.476
16 91 Karro, Matiss LAT LAMSF KTM 24:48.368 12 0:52.378 0:00.464 1:53.092 11 53.479
17 22 Strijbos, Kevin BEL FMB KTM 24:51.159 12 0:55.169 0:02.791 1:53.116 10 53.467
18 39 Guarneri, Davide ITA FMI KTM 25:04.973 12 1:08.983 0:13.814 1:52.662 7 53.683
19 7 Barragan, Jonathan ESP RFME Honda 25:13.294 12 1:17.304 0:08.321 1:53.453 5 53.308
20 36 Bonini, Matteo ITA FMI KTM 25:22.778 12 1:26.788 0:09.484 1:55.601 10 52.318
21 111 Ferris, Dean AUS MA Kawasaki 25:23.208 12 1:27.218 0:00.430 1:54.575 10 52.786
22 32 Potisek, Milko FRA FFM Honda 25:39.829 12 1:43.839 0:16.621 1:54.588 10 52.78
23 42 Parker, Nathan GBR ACU KTM 25:42.307 12 1:46.317 0:02.478 1:56.958 4 51.711
24 41 Smith, Alfie GBR ACU Yamaha 25:42.380 12 1:46.390 0:00.073 1:57.033 6 51.678
25 95 Justs, Augusts LAT LAMSF Honda 24:05.505 11 1 lap 1 lap 1:58.130 5 51.198
26 67 Tiainen, Santtu FIN SML Kawasaki 24:05.914 11 1 lap 0:00.409 1:58.150 3 51.189
27 99 Teko, Kristers LAT LAMSF Honda 24:14.970 11 1 lap 0:09.056 1:59.447 4 50.633
28 116 Pashchynskyi, Mykola UKR FMU KTM 24:19.121 11 1 lap 0:04.151 1:59.055 7 50.8
29 611 Cociu, Mihail MOL FMI KTM 25:20.413 11 1 lap 1:01.292 2:03.241 5 49.075
30 74 Steinbergs, Ivo LAT LAMSF Kawasaki 14:04.475 6 6 laps 5 laps 1:59.246 3 50.719
31 183 Frossard, Steven FRA FFM Yamaha 11:49.391 5 7 laps 1 lap 1:51.636 3 54.176
32 61 Brakke, Herjan NED KNMV Yamaha 6:49.754 1 11 laps 4 laps 3:36.533 1 27.931

MX2 – Pre-Qualifying Practice – Classification
Pos Nr Rider Nat. Fed. Bike Bestlaptime in lap Diff. First Diff. Prev. Tot. Laps Speed

1 84 Herlings, Jeffrey NED KNMV KTM 1:48.226 7 0:00.000 0:00.000 9 55.883
2 100 Searle, Tommy GBR ACU Kawasaki 1:48.877 9 0:00.651 0:00.651 12 55.549
3 6 Anstie, Max GBR AMA Honda 1:49.678 11 0:01.452 0:00.801 11 55.143
4 89 van Horebeek, Jeremy BEL FMB KTM 1:49.732 9 0:01.506 0:00.054 9 55.116
5 37 Teillet, Valentin FRA FFM Kawasaki 1:49.851 7 0:01.625 0:00.119 12 55.056
6 34 Roelants, Joel BEL FMB Kawasaki 1:50.485 9 0:02.259 0:00.634 11 54.74
7 170 Leib, Michael USA AMA Yamaha 1:50.658 10 0:02.432 0:00.173 12 54.655
8 45 Nicholls, Jake GBR ACU KTM 1:50.947 10 0:02.721 0:00.289 11 54.513
9 152 Petrov, Petar BUL BMF Suzuki 1:50.970 7 0:02.744 0:00.023 9 54.501
10 17 Butron, Jose ESP RFME KTM 1:51.120 11 0:02.894 0:00.150 12 54.428
11 77 Lupino, Alessandro ITA FMI Husqvarna 1:51.178 9 0:02.952 0:00.058 10 54.399
12 66 Tonkov, Alexander RUS MFR Honda 1:51.189 7 0:02.963 0:00.011 11 54.394
13 911 Tixier, Jordi FRA FFM KTM 1:51.375 9 0:03.149 0:00.186 14 54.303
14 25 Coldenhoff, Glenn NED KNMV KTM 1:51.456 11 0:03.230 0:00.081 11 54.264
15 151 Kullas, Harri FIN SML Suzuki 1:51.595 11 0:03.369 0:00.139 11 54.196
16 119 Pocock, Mel GBR ACU Yamaha 1:51.832 4 0:03.606 0:00.237 7 54.081
17 22 Ferrandis, Dylan FRA FFM Kawasaki 1:52.174 10 0:03.948 0:00.342 10 53.916
18 44 Banks-Browne, Elliott GBR ACU KTM 1:52.197 8 0:03.971 0:00.023 12 53.905
19 202 Larrieu, Loic FRA FFM Husqvarna 1:52.432 9 0:04.206 0:00.235 11 53.793
20 35 Rauchenecker, Pascal AUT OeAMTC KTM 1:52.539 12 0:04.313 0:00.107 12 53.741
21 128 Monticelli, Ivo ITA FMI Suzuki 1:52.925 11 0:04.699 0:00.386 11 53.558
22 249 Larsen, Nikolaj DEN DMU Suzuki 1:52.953 6 0:04.727 0:00.028 11 53.544
23 461 Febvre, Romain FRA FFM KTM 1:53.078 10 0:04.852 0:00.125 13 53.485
24 221 Rätsep, Priit EST EMF KTM 1:53.164 7 0:04.938 0:00.086 9 53.445
25 141 Cervellin, Andrea ITA FMI TM 1:53.328 12 0:05.102 0:00.164 12 53.367
26 33 Lieber, Julien BEL FMB KTM 1:53.396 9 0:05.170 0:00.068 13 53.335
27 262 Del Segato, Giacomo ITA FMI KTM 1:53.849 7 0:05.623 0:00.453 11 53.123
28 123 Bernardini, Samuele ITA FMI KTM 1:54.348 5 0:06.122 0:00.499 9 52.891
29 922 Fors, Kevin BEL FMB Yamaha 1:54.403 7 0:06.177 0:00.055 8 52.866
30 51 Getteman, Jens BEL FMB Suzuki 1:54.730 10 0:06.504 0:00.327 10 52.715
31 837 Battig, Alessandro ITA FMI Yamaha 1:54.878 6 0:06.652 0:00.148 11 52.647
32 264 Bengtsson, Filip SWE SVEMO KTM 1:54.934 11 0:06.708 0:00.056 11 52.622
33 103 Vandueren, Kenny BEL FMB Yamaha 1:55.255 5 0:07.029 0:00.321 10 52.475
34 112 Heibye, Even NOR NMF KTM 1:55.581 9 0:07.355 0:00.326 12 52.327
35 195 Justs, Roberts LAT LAMSF Honda 1:55.934 9 0:07.708 0:00.353 11 52.168
36 600 Davis, Ivanovs LAT LAMSF Kawasaki 1:56.246 7 0:08.020 0:00.312 8 52.028
37 101 Zeni, Samuel ITA FMI Yamaha 1:56.990 9 0:08.764 0:00.744 9 51.697
38 173 Guillod, Valentin SUI FMS KTM 1:57.318 2 0:09.092 0:00.328 7 51.552
39 300 Viacheslav, Golovkin RUS LAMSF Kawasaki 1:57.330 10 0:09.104 0:00.012 10 51.547
40 50 Mitchell, Sean Rowen ZIM ZMSF KTM 1:58.197 12 0:09.971 0:00.867 12 51.169

MX2 – Qualifying Race – Classification
Pos Nr Rider Nat. Fed. Bike Time laps Diff. First Diff. Prev. Bestlaptime in lap Speed

1 100 Searle, Tommy GBR ACU Kawasaki 25:05.361 12 0:00.000 0:00.000 1:54.626 5 52.763
2 37 Teillet, Valentin FRA FFM Kawasaki 25:07.695 12 0:02.334 0:02.334 1:54.713 5 52.723
3 45 Nicholls, Jake GBR ACU KTM 25:40.278 12 0:34.917 0:32.583 1:57.458 10 51.491
4 17 Butron, Jose ESP RFME KTM 25:48.885 12 0:43.524 0:08.607 1:57.846 10 51.321
5 44 Banks-Browne, Elliott GBR ACU KTM 25:51.777 12 0:46.416 0:02.892 1:57.553 10 51.449
6 89 van Horebeek, Jeremy BEL FMB KTM 25:53.446 12 0:48.085 0:01.669 1:56.997 10 51.694
7 6 Anstie, Max GBR AMA Honda 25:55.228 12 0:49.867 0:01.782 1:57.218 8 51.596
8 77 Lupino, Alessandro ITA FMI Husqvarna 26:00.476 12 0:55.115 0:05.248 1:58.439 4 51.064
9 151 Kullas, Harri FIN SML Suzuki 26:00.830 12 0:55.469 0:00.354 1:57.133 7 51.634
10 22 Ferrandis, Dylan FRA FFM Kawasaki 26:07.264 12 1:01.903 0:06.434 1:57.380 10 51.525
11 34 Roelants, Joel BEL FMB Kawasaki 26:10.484 12 1:05.123 0:03.220 1:55.785 10 52.235
12 152 Petrov, Petar BUL BMF Suzuki 26:20.124 12 1:14.763 0:09.640 1:59.404 8 50.652
13 66 Tonkov, Alexander RUS MFR Honda 26:28.997 12 1:23.636 0:08.873 2:00.462 3 50.207
14 911 Tixier, Jordi FRA FFM KTM 26:36.732 12 1:31.371 0:07.735 2:00.152 10 50.336
15 170 Leib, Michael USA AMA Yamaha 26:41.979 12 1:36.618 0:05.247 1:58.936 10 50.851
16 84 Herlings, Jeffrey NED KNMV KTM 26:46.647 12 1:41.286 0:04.668 1:57.415 12 51.51
17 119 Pocock, Mel GBR ACU Yamaha 26:54.641 12 1:49.280 0:07.994 1:58.635 5 50.98
18 922 Fors, Kevin BEL FMB Yamaha 26:56.843 12 1:51.482 0:02.202 2:02.308 3 49.449
19 33 Lieber, Julien BEL FMB KTM 27:01.195 12 1:55.834 0:04.352 2:01.491 11 49.781
20 128 Monticelli, Ivo ITA FMI Suzuki 27:05.970 12 2:00.609 0:04.775 2:01.119 11 49.934
21 25 Coldenhoff, Glenn NED KNMV KTM 24:22.920 11 1 lap 1 lap 1:59.358 11 50.671
22 51 Getteman, Jens BEL FMB Suzuki 25:14.279 11 1 lap 0:51.359 2:03.298 3 49.052
23 173 Guillod, Valentin SUI FMS KTM 25:14.312 11 1 lap 0:00.033 2:01.532 11 49.765
24 112 Heibye, Even NOR NMF KTM 25:18.657 11 1 lap 0:04.345 2:03.192 11 49.094
25 141 Cervellin, Andrea ITA FMI TM 25:19.502 11 1 lap 0:00.845 2:01.063 7 49.957
26 249 Larsen, Nikolaj DEN DMU Suzuki 25:24.564 11 1 lap 0:05.062 2:00.276 9 50.284
27 837 Battig, Alessandro ITA FMI Yamaha 25:29.330 11 1 lap 0:04.766 2:02.760 10 49.267
28 35 Rauchenecker, Pascal AUT OeAMTC KTM 25:29.882 11 1 lap 0:00.552 2:05.546 10 48.174
29 264 Bengtsson, Filip SWE SVEMO KTM 25:30.440 11 1 lap 0:00.558 2:04.006 10 48.772
30 195 Justs, Roberts LAT LAMSF Honda 25:30.846 11 1 lap 0:00.406 2:05.521 11 48.183
31 221 Rätsep, Priit EST EMF KTM 25:32.653 11 1 lap 0:01.807 2:00.482 10 50.198
32 202 Larrieu, Loic FRA FFM Husqvarna 25:41.660 11 1 lap 0:09.007 2:01.653 9 49.715
33 101 Zeni, Samuel ITA FMI Yamaha 26:04.057 11 1 lap 0:22.397 2:07.009 8 47.619
34 123 Bernardini, Samuele ITA FMI KTM 26:39.231 11 1 lap 0:35.174 2:03.733 9 48.879
35 262 Del Segato, Giacomo ITA FMI KTM 26:47.782 11 1 lap 0:08.551 2:02.771 10 49.262
36 600 Davis, Ivanovs LAT LAMSF Kawasaki 25:12.090 10 2 laps 1 lap 2:00.994 8 49.986
37 50 Mitchell, Sean Rowen ZIM ZMSF KTM 25:38.593 10 2 laps 0:26.503 2:08.671 2 47.004
38 300 Viacheslav, Golovkin RUS LAMSF Kawasaki 25:34.502 9 3 laps 1 lap 2:10.394 7 46.383
39 461 Febvre, Romain FRA FFM KTM 11:27.526 4 8 laps 5 laps 2:10.653 4 46.291
40 103 Vandueren, Kenny BEL FMB Yamaha 8:39.027 3 9 laps 1 lap 2:07.420 3 47.465

EMX 125 – Time Practice – Classification
Pos Nr Rider Nat. Fed. Bike Bestlaptime in lap Diff. First Diff. Prev. Tot. Laps Speed

1 243 Gajser, Tim SLO AMZS KTM 1:53.739 7 0:00.000 0:00.000 8 53.174
2 99 Zaragoza Beltran, Jorge ESP RFME Suzuki 1:55.008 13 0:01.269 0:01.269 13 52.588
3 999 Bonini, Davide ITA FMI KTM 1:55.384 10 0:01.645 0:00.376 10 52.416
4 29 Jacobi, Henry GER DMSB KTM 1:55.412 10 0:01.673 0:00.028 10 52.404
5 141 Jonass, Pauls LAT LAMSF KTM 1:56.119 4 0:02.380 0:00.707 11 52.084
6 200 Dunn, James GBR ACU KTM 1:56.268 9 0:02.529 0:00.149 12 52.018
7 101 Kovar, Vaclav CZE ACCR KTM 1:57.312 11 0:03.573 0:01.044 11 51.555
8 997 Righi, Riccardo ITA FMI KTM 1:57.535 5 0:03.796 0:00.223 12 51.457
9 48 Voytsytskiy, Rostyslav UKR FMU KTM 1:57.709 6 0:03.970 0:00.174 11 51.381
10 114 Della Mora, Alessio ITA FMI KTM 1:57.741 6 0:04.002 0:00.032 11 51.367
11 51 Castro, Sergio ESP RFME KTM 1:57.940 7 0:04.201 0:00.199 11 51.28
12 112 Vlaanderen, Calvin NED KNMV KTM 1:58.485 5 0:04.746 0:00.545 11 51.044
13 100 Klingshelm, Magne NOR NMF KTM 1:58.487 9 0:04.748 0:00.002 12 51.044
14 95 Furlotti, Simone ITA FMI Suzuki 1:58.635 6 0:04.896 0:00.148 10 50.98
15 110 Verhaeghe, Alexis FRA FFM Kawasaki 1:58.889 8 0:05.150 0:00.254 10 50.871
16 77 Jasikonis, Arminas LTU LMSF KTM 1:59.418 9 0:05.679 0:00.529 10 50.646
17 372 Baranov, Ivan RUS MFR KTM 1:59.489 9 0:05.750 0:00.071 10 50.616
18 191 Podmol, Filip CZE ACCR KTM 1:59.548 9 0:05.809 0:00.059 11 50.591
19 274 Lundgren, Anton SWE SVEMO KTM 1:59.554 9 0:05.815 0:00.006 11 50.588
20 64 Damiaens, Dietger BEL FMB KTM 1:59.656 11 0:05.917 0:00.102 11 50.545
21 81 Larranaga, Iker ESP RFME Suzuki 1:59.986 11 0:06.247 0:00.330 12 50.406
22 76 Roosiorg, Henri EST EMF KTM 2:00.181 9 0:06.442 0:00.195 11 50.324
23 16 Adams, Nicholas GBR ACU KTM 2:00.746 11 0:07.007 0:00.565 11 50.089
24 722 Mantovani, Michael ITA FMI KTM 2:00.766 7 0:07.027 0:00.020 11 50.08
25 198 Kaipanen, Mikael FIN SML KTM 2:00.879 9 0:07.140 0:00.113 10 50.034
26 79 Corneth, Jaap NED KNMV KTM 2:00.987 6 0:07.248 0:00.108 10 49.989
27 117 Falden, Joachim FRA FFM KTM 2:01.077 7 0:07.338 0:00.090 10 49.952
28 8 Deghi, Gianluca ITA FMI KTM 2:01.161 9 0:07.422 0:00.084 9 49.917
29 63 Bengtsson, Carl SWE SVEMO Yamaha 2:01.227 5 0:07.488 0:00.066 8 49.89
30 223 De Pietri, Tommaso ITA FMI Suzuki 2:01.319 9 0:07.580 0:00.092 10 49.852
31 595 Toccaceli, Bryan SMR FSM Suzuki 2:01.403 8 0:07.664 0:00.084 10 49.818
32 183 Renkens, Nathan BEL FMB Yamaha 2:01.415 9 0:07.676 0:00.012 12 49.813
33 160 Kritikos, Manolis GRE ELPA Yamaha 2:01.640 11 0:07.901 0:00.225 11 49.72
34 15 Hofman, Styn BEL FMB KTM 2:01.674 8 0:07.935 0:00.034 10 49.707
35 148 Eccles, Michael GBR ACU KTM 2:01.701 10 0:07.962 0:00.027 11 49.696
36 251 Guriev, Artem RUS MFR KTM 2:01.780 8 0:08.041 0:00.079 8 49.663
37 278 Vermijl, Thomas BEL FMB KTM 2:01.797 10 0:08.058 0:00.017 11 49.656
38 152 Marini, Thomas SMR FSM Suzuki 2:02.259 5 0:08.520 0:00.462 7 49.469
39 25 Vondrasek, Jan CZE ACCR KTM 2:02.275 8 0:08.536 0:00.016 8 49.462
40 20 Facchetti, Emanuele ITA FMI KTM 2:02.563 10 0:08.824 0:00.288 10 49.346
41 156 van Nobelen, Jordi NED KNMV KTM 2:02.654 4 0:08.915 0:00.091 10 49.309
42 118 van Mechelen, Joel NED KNMV KTM 2:03.203 9 0:09.464 0:00.549 12 49.09
43 377 Krc, Martin CZE ACCR KTM 2:03.204 6 0:09.465 0:00.001 9 49.089
44 47 Tarasov, Volodymyr UKR FMU KTM 2:03.696 3 0:09.957 0:00.492 10 48.894
45 151 Plch, Rudolf CZE ACCR KTM 2:10.131 9 0:16.392 0:06.435 9 46.476

EMX 125 – Race 1 – Classification
Pos Nr Rider Nat. Fed. Bike Time laps Diff. First Diff. Prev. Bestlaptime in lap Speed

1 243 Gajser, Tim SLO AMZS KTM 29:46.422 14 0:00.000 0:00.000 1:57.690 1 51.389
2 99 Zaragoza Beltran, Jorge ESP RFME Suzuki 29:58.532 14 0:12.110 0:12.110 1:58.916 10 50.859
3 999 Bonini, Davide ITA FMI KTM 30:04.797 14 0:18.375 0:06.265 1:58.748 9 50.931
4 29 Jacobi, Henry GER DMSB KTM 30:09.915 14 0:23.493 0:05.118 1:59.706 6 50.524
5 95 Furlotti, Simone ITA FMI Suzuki 30:11.254 14 0:24.832 0:01.339 2:00.337 11 50.259
6 100 Klingshelm, Magne NOR NMF KTM 30:34.503 14 0:48.081 0:23.249 1:59.742 1 50.509
7 274 Lundgren, Anton SWE SVEMO KTM 30:47.366 14 1:00.944 0:12.863 2:02.229 8 49.481
8 112 Vlaanderen, Calvin NED KNMV KTM 30:49.405 14 1:02.983 0:02.039 2:01.938 11 49.599
9 997 Righi, Riccardo ITA FMI KTM 30:51.257 14 1:04.835 0:01.852 2:01.354 9 49.838
10 372 Baranov, Ivan RUS MFR KTM 30:59.285 14 1:12.863 0:08.028 2:01.550 10 49.757
11 81 Larranaga, Iker ESP RFME Suzuki 31:00.863 14 1:14.441 0:01.578 2:02.296 13 49.454
12 722 Mantovani, Michael ITA FMI KTM 31:02.244 14 1:15.822 0:01.381 2:03.065 8 49.145
13 223 De Pietri, Tommaso ITA FMI Suzuki 31:03.633 14 1:17.211 0:01.389 2:02.866 11 49.224
14 141 Jonass, Pauls LAT LAMSF KTM 31:06.181 14 1:19.759 0:02.548 2:02.084 4 49.54
15 79 Corneth, Jaap NED KNMV KTM 31:09.372 14 1:22.950 0:03.191 2:02.766 6 49.264
16 114 Della Mora, Alessio ITA FMI KTM 31:10.967 14 1:24.545 0:01.595 2:02.299 5 49.453
17 51 Castro, Sergio ESP RFME KTM 31:14.162 14 1:27.740 0:03.195 2:02.534 2 49.358
18 101 Kovar, Vaclav CZE ACCR KTM 31:20.659 14 1:34.237 0:06.497 2:02.467 6 49.385
19 200 Dunn, James GBR ACU KTM 31:24.706 14 1:38.284 0:04.047 2:01.104 13 49.941
20 15 Hofman, Styn BEL FMB KTM 31:25.543 14 1:39.121 0:00.837 2:03.374 9 49.022
21 48 Voytsytskiy, Rostyslav UKR FMU KTM 31:26.343 14 1:39.921 0:00.800 2:03.701 12 48.892
22 77 Jasikonis, Arminas LTU LMSF KTM 31:29.494 14 1:43.072 0:03.151 2:02.976 11 49.18
23 110 Verhaeghe, Alexis FRA FFM Kawasaki 31:32.219 14 1:45.797 0:02.725 2:02.941 11 49.194
24 148 Eccles, Michael GBR ACU KTM 31:40.407 14 1:53.985 0:08.188 2:04.048 9 48.755
25 64 Damiaens, Dietger BEL FMB KTM 31:43.237 14 1:56.815 0:02.830 2:03.534 11 48.958
26 117 Falden, Joachim FRA FFM KTM 28:53.076 13 1 lap 1 lap 2:01.691 3 49.7
27 16 Adams, Nicholas GBR ACU KTM 29:51.042 13 1 lap 0:57.966 2:05.130 9 48.334
28 76 Roosiorg, Henri EST EMF KTM 29:57.164 13 1 lap 0:06.122 2:05.700 8 48.115
29 8 Deghi, Gianluca ITA FMI KTM 29:57.488 13 1 lap 0:00.324 2:05.009 10 48.381
30 25 Vondrasek, Jan CZE ACCR KTM 29:59.440 13 1 lap 0:01.952 2:05.666 7 48.128
31 183 Renkens, Nathan BEL FMB Yamaha 30:02.359 13 1 lap 0:02.919 2:05.898 12 48.039
32 20 Facchetti, Emanuele ITA FMI KTM 30:02.927 13 1 lap 0:00.568 2:05.007 6 48.381
33 251 Guriev, Artem RUS MFR KTM 30:06.508 13 1 lap 0:03.581 2:06.955 12 47.639
34 198 Kaipanen, Mikael FIN SML KTM 30:12.081 13 1 lap 0:05.573 2:07.294 11 47.512
35 152 Marini, Thomas SMR FSM Suzuki 30:19.569 13 1 lap 0:07.488 2:06.674 6 47.745
36 595 Toccaceli, Bryan SMR FSM Suzuki 30:21.477 13 1 lap 0:01.908 2:05.477 13 48.2
37 278 Vermijl, Thomas BEL FMB KTM 30:22.777 13 1 lap 0:01.300 2:06.369 6 47.86
38 63 Bengtsson, Carl SWE SVEMO Yamaha 23:31.397 10 4 laps 3 laps 2:03.788 3 48.858
39 160 Kritikos, Manolis GRE ELPA Yamaha 10:45.872 3 11 laps 7 laps 2:18.911 1 43.539
40 191 Podmol, Filip CZE ACCR KTM 6:26.130 2 12 laps 1 lap 2:07.698 1 47.362

Suivez les qualifications tout au long de la journée sur PRE111IERMOTOCROSS..

A voir aussi :

Le commentaires sont fermés.